createdAt,value
2022-09-30T00:00:05.428Z,85.87
2022-09-30T00:03:12.304Z,85.39
2022-09-30T00:06:36.267Z,85.58
2022-09-30T00:13:26.366Z,86.92
2022-09-30T00:16:18.643Z,87.56
2022-09-30T00:19:14.876Z,86.17
2022-09-30T00:22:21.649Z,88.47
2022-09-30T00:29:01.027Z,88.04
2022-09-30T00:35:51.131Z,90.42
2022-09-30T00:38:54.218Z,89.20
2022-09-30T00:45:59.312Z,85.59
2022-09-30T00:49:32.023Z,88.35
2022-09-30T00:56:27.576Z,86.52
2022-09-30T01:03:13.667Z,90.17
2022-09-30T01:10:16.940Z,87.31
2022-09-30T01:13:58.662Z,87.61
2022-09-30T01:17:53.931Z,84.90
2022-09-30T01:21:03.722Z,85.56
2022-09-30T01:24:17.400Z,86.03
2022-09-30T01:28:07.969Z,88.01
2022-09-30T01:31:25.004Z,87.21
2022-09-30T01:35:27.081Z,87.88
2022-09-30T01:39:33.955Z,88.07
2022-09-30T01:46:46.583Z,94.17
2022-09-30T01:57:26.582Z,92.93
2022-09-30T02:00:41.931Z,91.67
2022-09-30T02:07:48.613Z,90.78
2022-09-30T02:14:55.713Z,95.47
2022-09-30T02:18:38.219Z,92.75
2022-09-30T02:21:53.322Z,91.99
2022-09-30T02:25:29.244Z,92.06
2022-09-30T02:28:27.132Z,92.73
2022-09-30T02:32:42.958Z,91.79
2022-09-30T02:36:25.852Z,92.06
2022-09-30T02:40:00.713Z,91.30
2022-09-30T02:42:57.675Z,91.39
2022-09-30T02:46:20.015Z,92.84
2022-09-30T02:53:12.232Z,97.58
2022-09-30T02:56:43.601Z,100.00
2022-09-30T03:03:35.180Z,95.11
2022-09-30T03:06:31.997Z,94.04
2022-09-30T03:09:37.229Z,93.78
2022-09-30T03:12:59.575Z,93.44
2022-09-30T03:23:28.224Z,96.97
2022-09-30T03:27:32.805Z,95.06
2022-09-30T03:34:24.419Z,98.05
2022-09-30T03:37:34.316Z,94.75
2022-09-30T03:40:51.526Z,92.74
2022-09-30T03:44:16.182Z,91.82
2022-09-30T03:47:26.420Z,92.08
2022-09-30T03:50:40.782Z,92.23
2022-09-30T03:53:29.051Z,94.77
2022-09-30T03:56:20.712Z,95.98
2022-09-30T04:02:12.510Z,92.44
2022-09-30T04:05:15.525Z,91.68
2022-09-30T04:07:42.935Z,90.51
2022-09-30T04:10:10.276Z,90.07
2022-09-30T04:12:37.751Z,90.34
2022-09-30T04:15:06.259Z,89.63
2022-09-30T04:17:33.602Z,89.81
2022-09-30T04:20:01.096Z,89.25
2022-09-30T04:22:46.912Z,88.76
2022-09-30T04:25:14.461Z,88.38
2022-09-30T04:27:41.890Z,87.88
2022-09-30T04:30:09.887Z,88.91
2022-09-30T04:32:37.353Z,88.51
2022-09-30T04:35:05.231Z,88.72
2022-09-30T04:37:32.888Z,89.27
2022-09-30T04:40:00.461Z,89.32
2022-09-30T04:42:27.940Z,88.96
2022-09-30T04:44:55.858Z,89.47
2022-09-30T04:47:25.286Z,90.00
2022-09-30T04:49:52.711Z,89.30
2022-09-30T04:52:20.229Z,88.31
2022-09-30T04:54:47.689Z,87.89
2022-09-30T04:57:15.552Z,87.51
2022-09-30T04:59:43.855Z,87.72
2022-09-30T05:02:12.867Z,88.14
2022-09-30T05:04:40.439Z,87.50
2022-09-30T05:07:09.046Z,88.04
2022-09-30T05:09:38.797Z,87.16
2022-09-30T05:12:06.337Z,86.87
2022-09-30T05:14:34.622Z,86.86
2022-09-30T05:17:02.321Z,88.35
2022-09-30T05:19:30.712Z,88.58
2022-09-30T05:21:58.548Z,90.37
2022-09-30T05:24:26.035Z,90.71
2022-09-30T05:26:53.596Z,93.41
2022-09-30T05:29:21.061Z,91.85
2022-09-30T05:31:48.706Z,90.87
2022-09-30T05:34:19.243Z,91.76
2022-09-30T05:36:46.854Z,90.73
2022-09-30T05:39:14.629Z,90.11
2022-09-30T05:41:42.120Z,88.91
2022-09-30T05:44:10.217Z,88.83
2022-09-30T05:46:37.632Z,87.60
2022-09-30T05:49:05.241Z,89.14
2022-09-30T05:51:32.724Z,88.75
2022-09-30T05:54:00.057Z,88.27
2022-09-30T05:56:27.433Z,88.50
2022-09-30T05:58:54.917Z,88.18
2022-09-30T06:01:22.449Z,88.17
2022-09-30T06:03:50.226Z,89.59
2022-09-30T06:06:19.667Z,88.16
2022-09-30T06:08:47.511Z,87.42
2022-09-30T06:11:18.899Z,87.40
2022-09-30T06:13:47.571Z,85.34
2022-09-30T06:16:15.908Z,83.74
2022-09-30T06:18:44.043Z,83.85
2022-09-30T06:21:18.972Z,81.54
2022-09-30T06:23:54.847Z,82.55
2022-09-30T06:26:23.385Z,81.86
2022-09-30T06:28:51.900Z,78.37
2022-09-30T06:31:21.189Z,78.35
2022-09-30T06:33:53.495Z,79.21
2022-09-30T06:36:20.934Z,80.33
2022-09-30T06:38:51.463Z,78.42
2022-09-30T06:41:18.941Z,79.28
2022-09-30T06:43:58.808Z,78.36
2022-09-30T06:46:31.516Z,78.96
2022-09-30T06:49:13.315Z,81.92
2022-09-30T06:51:42.221Z,78.99
2022-09-30T06:54:10.579Z,78.24
2022-09-30T06:56:38.288Z,77.60
2022-09-30T06:59:05.688Z,79.95
2022-09-30T07:01:33.199Z,81.41
2022-09-30T07:04:03.325Z,78.52
2022-09-30T07:06:31.198Z,81.11
2022-09-30T07:08:58.699Z,78.13
2022-09-30T07:11:26.396Z,78.38
2022-09-30T07:13:54.126Z,75.61
2022-09-30T07:16:21.794Z,73.75
2022-09-30T07:18:51.823Z,71.44
2022-09-30T07:21:19.376Z,69.24
2022-09-30T07:23:49.913Z,68.88
2022-09-30T07:26:19.635Z,68.45
2022-09-30T07:28:48.135Z,67.63
2022-09-30T07:31:37.262Z,68.52
2022-09-30T07:34:08.842Z,69.30
2022-09-30T07:36:39.154Z,68.86
2022-09-30T07:39:09.217Z,67.92
2022-09-30T07:41:39.666Z,65.72
2022-09-30T07:44:12.329Z,65.84
2022-09-30T07:46:41.177Z,59.32
2022-09-30T07:49:13.584Z,59.91
2022-09-30T07:51:45.292Z,62.21
2022-09-30T07:54:15.961Z,58.62
2022-09-30T07:57:08.872Z,61.24
2022-09-30T07:59:36.847Z,60.90
2022-09-30T08:02:06.140Z,62.55
2022-09-30T08:04:34.384Z,64.36
2022-09-30T08:07:02.906Z,62.54
2022-09-30T08:09:35.272Z,62.34
2022-09-30T08:12:04.556Z,67.81
2022-09-30T08:14:32.599Z,65.33
2022-09-30T08:17:01.604Z,66.60
2022-09-30T08:19:30.959Z,63.47
2022-09-30T08:21:58.794Z,66.08
2022-09-30T08:24:27.092Z,67.90
2022-09-30T08:26:55.760Z,66.13
2022-09-30T08:29:53.423Z,65.13
2022-09-30T08:32:10.868Z,67.31
2022-09-30T08:34:38.303Z,68.75
2022-09-30T08:37:09.113Z,67.85
2022-09-30T08:39:38.680Z,69.20
2022-09-30T08:42:32.767Z,67.55
2022-09-30T08:45:21.386Z,65.20
2022-09-30T08:48:00.985Z,65.81
2022-09-30T08:51:01.614Z,64.59
2022-09-30T08:53:33.436Z,67.05
2022-09-30T08:56:03.237Z,67.36
2022-09-30T08:58:41.459Z,69.68
2022-09-30T09:01:38.321Z,70.92
2022-09-30T09:04:07.960Z,67.76
2022-09-30T09:06:59.102Z,66.91
2022-09-30T09:09:59.126Z,67.44
2022-09-30T09:12:44.903Z,68.41
2022-09-30T09:15:24.463Z,69.69
2022-09-30T09:18:23.999Z,68.07
2022-09-30T09:21:02.125Z,69.27
2022-09-30T09:23:33.083Z,69.04
2022-09-30T09:26:00.747Z,71.65
2022-09-30T09:28:37.057Z,70.63
2022-09-30T09:31:04.880Z,70.87
2022-09-30T09:33:36.885Z,70.61
2022-09-30T09:36:04.302Z,72.09
2022-09-30T09:38:49.141Z,72.60
2022-09-30T09:41:33.548Z,72.18
2022-09-30T09:44:15.016Z,73.00
2022-09-30T09:46:52.794Z,73.80
2022-09-30T09:49:23.595Z,72.25
2022-09-30T09:52:00.314Z,74.23
2022-09-30T09:54:30.332Z,71.01
2022-09-30T09:57:09.479Z,72.25
2022-09-30T09:59:39.378Z,72.89
2022-09-30T10:02:24.264Z,73.46
2022-09-30T10:05:00.215Z,75.54
2022-09-30T10:07:33.552Z,73.98
2022-09-30T10:10:23.423Z,73.06
2022-09-30T10:12:51.471Z,72.62
2022-09-30T10:15:26.441Z,72.62
2022-09-30T10:17:57.010Z,73.93
2022-09-30T10:20:31.205Z,74.31
2022-09-30T10:23:20.200Z,75.20
2022-09-30T10:26:05.770Z,75.22
2022-09-30T10:28:44.382Z,76.35
2022-09-30T10:31:15.937Z,75.30
2022-09-30T10:33:46.396Z,77.42
2022-09-30T10:36:17.597Z,78.04
2022-09-30T10:39:07.758Z,76.35
2022-09-30T10:41:38.345Z,75.97
2022-09-30T10:44:14.993Z,78.22
2022-09-30T10:46:45.120Z,77.44
2022-09-30T10:49:26.198Z,77.20
2022-09-30T10:51:54.599Z,78.80
2022-09-30T10:54:49.903Z,79.44
2022-09-30T10:57:28.843Z,78.00
2022-09-30T11:00:01.286Z,80.01
2022-09-30T11:02:44.608Z,78.11
2022-09-30T11:05:21.156Z,78.80
2022-09-30T11:07:57.595Z,79.88
2022-09-30T11:10:48.882Z,80.47
2022-09-30T11:13:21.640Z,79.84
2022-09-30T11:16:06.574Z,81.78
2022-09-30T11:19:04.883Z,77.59
2022-09-30T11:21:46.564Z,75.92
2022-09-30T11:24:14.072Z,79.28
2022-09-30T11:27:10.397Z,79.03
2022-09-30T11:30:11.314Z,80.69
2022-09-30T11:33:08.720Z,79.13
2022-09-30T11:36:09.836Z,78.41
2022-09-30T11:39:06.875Z,79.97
2022-09-30T11:41:42.782Z,82.89
2022-09-30T11:44:36.254Z,82.03
2022-09-30T11:47:36.747Z,80.76
2022-09-30T11:50:23.195Z,80.25
2022-09-30T11:53:02.896Z,85.40
2022-09-30T11:55:44.516Z,85.63
2022-09-30T11:58:40.345Z,87.06
2022-09-30T12:01:21.297Z,85.19
2022-09-30T12:04:00.944Z,83.65
2022-09-30T12:06:54.073Z,86.42
2022-09-30T12:09:32.353Z,85.39
2022-09-30T12:12:12.443Z,88.22
2022-09-30T12:14:57.984Z,89.91
2022-09-30T12:17:32.680Z,86.04
2022-09-30T12:20:15.562Z,88.68
2022-09-30T12:22:47.130Z,91.12
2022-09-30T12:25:22.932Z,90.32
2022-09-30T12:28:00.603Z,91.53
2022-09-30T12:30:30.643Z,89.16
2022-09-30T12:33:36.439Z,91.50
2022-09-30T12:36:45.850Z,89.48
2022-09-30T12:39:48.845Z,87.39
2022-09-30T12:42:41.208Z,89.84
2022-09-30T12:45:24.705Z,90.28
2022-09-30T12:47:56.139Z,92.26
2022-09-30T12:50:28.881Z,92.88
2022-09-30T12:52:57.655Z,90.92
2022-09-30T12:55:32.235Z,90.75
2022-09-30T12:58:01.592Z,87.45
2022-09-30T13:00:34.586Z,89.03
2022-09-30T13:03:09.035Z,89.96
2022-09-30T13:05:38.044Z,87.35
2022-09-30T13:08:05.313Z,89.00
2022-09-30T13:10:58.075Z,89.93
2022-09-30T13:13:29.279Z,90.43
2022-09-30T13:16:03.700Z,89.92
2022-09-30T13:18:31.017Z,91.24
2022-09-30T13:21:04.665Z,91.06
2022-09-30T13:23:54.530Z,90.77
2022-09-30T13:26:37.229Z,91.26
2022-09-30T13:29:16.725Z,92.19
2022-09-30T13:31:49.902Z,91.60
2022-09-30T13:34:24.534Z,92.40
2022-09-30T13:36:51.788Z,94.22
2022-09-30T13:39:31.595Z,95.28
2022-09-30T13:42:14.455Z,93.30
2022-09-30T13:45:05.009Z,94.04
2022-09-30T13:47:51.824Z,98.14
2022-09-30T13:50:39.907Z,94.07
2022-09-30T13:53:16.088Z,92.58
2022-09-30T13:55:47.960Z,92.60
2022-09-30T13:58:36.841Z,90.01
2022-09-30T14:01:26.851Z,89.67
2022-09-30T14:04:21.594Z,91.18
2022-09-30T14:06:54.918Z,89.81
2022-09-30T14:09:54.932Z,89.56
2022-09-30T14:12:29.158Z,91.76
2022-09-30T14:15:25.538Z,92.60
2022-09-30T14:18:08.732Z,91.57
2022-09-30T14:21:02.863Z,92.01
2022-09-30T14:23:30.467Z,89.89
2022-09-30T14:26:20.355Z,90.43
2022-09-30T14:29:08.600Z,90.81
2022-09-30T14:31:44.638Z,90.00
2022-09-30T14:34:14.886Z,89.22
2022-09-30T14:36:44.314Z,88.44
2022-09-30T14:39:20.401Z,93.02
2022-09-30T14:41:55.800Z,91.60
2022-09-30T14:44:24.470Z,90.26
2022-09-30T14:46:52.757Z,91.58
2022-09-30T14:49:28.622Z,89.67
2022-09-30T14:51:56.144Z,91.06
2022-09-30T14:54:31.897Z,86.79
2022-09-30T14:57:02.551Z,85.96
2022-09-30T14:59:33.463Z,86.58
2022-09-30T15:02:03.891Z,87.29
2022-09-30T15:04:39.032Z,86.14
2022-09-30T15:07:11.297Z,86.93
2022-09-30T15:09:42.265Z,87.45
2022-09-30T15:12:17.868Z,85.88
2022-09-30T15:14:55.901Z,86.28
2022-09-30T15:17:28.708Z,88.58
2022-09-30T15:19:58.521Z,89.15
2022-09-30T15:22:29.069Z,89.65
2022-09-30T15:24:58.174Z,89.54
2022-09-30T15:27:37.010Z,88.77
2022-09-30T15:30:24.240Z,91.81
2022-09-30T15:33:01.224Z,93.11
2022-09-30T15:35:29.472Z,90.71
2022-09-30T15:38:21.260Z,92.42
2022-09-30T15:40:59.715Z,93.33
2022-09-30T15:43:52.785Z,92.54
2022-09-30T15:46:38.619Z,90.01
2022-09-30T15:49:35.483Z,91.39
2022-09-30T15:52:36.600Z,93.13
2022-09-30T15:55:52.172Z,93.90
2022-09-30T15:58:39.995Z,93.51
2022-09-30T16:01:27.733Z,89.98
2022-09-30T16:04:14.373Z,91.01
2022-09-30T16:06:42.061Z,88.96
2022-09-30T16:09:21.435Z,88.80
2022-09-30T16:12:09.954Z,89.53
2022-09-30T16:14:44.037Z,91.89
2022-09-30T16:17:23.584Z,91.17
2022-09-30T16:19:53.795Z,93.28
2022-09-30T16:22:42.752Z,91.63
2022-09-30T16:25:28.102Z,90.78
2022-09-30T16:27:59.754Z,91.03
2022-09-30T16:30:29.193Z,89.84
2022-09-30T16:32:59.574Z,90.06
2022-09-30T16:35:28.864Z,89.72
2022-09-30T16:38:06.987Z,90.53
2022-09-30T16:40:38.271Z,92.15
2022-09-30T16:43:07.750Z,92.76
2022-09-30T16:45:35.763Z,94.09
2022-09-30T16:48:16.900Z,93.58
2022-09-30T16:50:49.421Z,94.38
2022-09-30T16:53:17.128Z,94.74
2022-09-30T16:55:45.020Z,97.60
2022-09-30T16:58:13.099Z,98.20
2022-09-30T17:00:44.742Z,97.14
2022-09-30T17:03:17.074Z,96.81
2022-09-30T17:05:46.530Z,98.08
2022-09-30T17:08:15.838Z,98.03
2022-09-30T17:10:46.430Z,98.70
2022-09-30T17:13:17.699Z,98.21
2022-09-30T17:15:50.316Z,97.62
2022-09-30T17:18:18.921Z,99.36
2022-09-30T17:20:52.704Z,95.99
2022-09-30T17:23:22.186Z,96.46
2022-09-30T17:25:50.463Z,95.20
2022-09-30T17:28:18.355Z,97.19
2022-09-30T17:30:48.271Z,99.43
2022-09-30T17:33:16.880Z,98.41
2022-09-30T17:35:44.388Z,99.55
2022-09-30T17:38:13.390Z,99.19
2022-09-30T17:40:59.458Z,97.24
2022-09-30T17:43:29.479Z,94.35
2022-09-30T17:45:59.221Z,93.65
2022-09-30T17:48:26.908Z,95.25
2022-09-30T17:50:56.750Z,98.24
2022-09-30T17:53:24.448Z,98.87
2022-09-30T17:56:04.741Z,98.72
2022-09-30T17:58:32.427Z,97.03
2022-09-30T18:01:08.076Z,96.62
2022-09-30T18:03:36.837Z,96.57
2022-09-30T18:06:10.132Z,95.27
2022-09-30T18:08:55.805Z,95.11
2022-09-30T18:11:26.107Z,95.10
2022-09-30T18:13:59.528Z,94.50
2022-09-30T18:16:30.887Z,95.73
2022-09-30T18:18:59.439Z,97.18
2022-09-30T18:21:28.149Z,97.53
2022-09-30T18:23:59.288Z,96.58
2022-09-30T18:26:33.296Z,96.53
2022-09-30T18:29:03.477Z,98.22
2022-09-30T18:31:38.868Z,98.66
2022-09-30T18:34:07.190Z,97.80
2022-09-30T18:36:37.483Z,97.00
2022-09-30T18:39:05.233Z,96.64
2022-09-30T18:41:35.307Z,98.63
2022-09-30T18:44:03.496Z,99.33
2022-09-30T18:46:31.434Z,97.80
2022-09-30T18:48:59.011Z,98.11
2022-09-30T18:51:26.538Z,98.24
2022-09-30T18:53:57.932Z,96.03
2022-09-30T18:56:29.800Z,97.49
2022-09-30T18:59:04.819Z,97.41
2022-09-30T19:01:33.956Z,96.47
2022-09-30T19:04:03.473Z,94.68
2022-09-30T19:06:31.137Z,94.49
2022-09-30T19:08:58.612Z,94.75
2022-09-30T19:11:27.941Z,93.73
2022-09-30T19:13:59.445Z,93.51
2022-09-30T19:16:28.772Z,94.16
2022-09-30T19:18:59.272Z,94.91
2022-09-30T19:21:28.835Z,96.07
2022-09-30T19:23:59.819Z,94.87
2022-09-30T19:26:28.459Z,94.55
2022-09-30T19:28:56.957Z,96.84
2022-09-30T19:31:25.873Z,99.44
2022-09-30T19:33:56.919Z,99.07
2022-09-30T19:36:27.297Z,100.00
2022-09-30T19:39:11.531Z,97.73
2022-09-30T19:41:40.445Z,96.80
2022-09-30T19:44:08.532Z,95.76
2022-09-30T19:46:36.686Z,94.21
2022-09-30T19:49:04.285Z,95.72
2022-09-30T19:51:37.262Z,93.72
2022-09-30T19:54:07.547Z,95.18
2022-09-30T19:56:37.344Z,95.45
2022-09-30T19:59:05.775Z,94.35
2022-09-30T20:01:35.313Z,96.32
2022-09-30T20:04:05.473Z,96.13
2022-09-30T20:06:34.456Z,96.89
2022-09-30T20:09:05.025Z,96.43
2022-09-30T20:11:36.204Z,94.79
2022-09-30T20:14:25.515Z,94.73
2022-09-30T20:16:54.397Z,95.18
2022-09-30T20:19:23.201Z,95.88
2022-09-30T20:21:52.309Z,96.87
2022-09-30T20:24:19.933Z,95.36
2022-09-30T20:26:48.331Z,94.30
2022-09-30T20:29:19.775Z,95.18
2022-09-30T20:31:48.285Z,94.41
2022-09-30T20:34:17.734Z,94.24
2022-09-30T20:36:45.373Z,94.05
2022-09-30T20:39:12.988Z,94.94
2022-09-30T20:41:40.820Z,94.93
2022-09-30T20:44:12.185Z,93.39
2022-09-30T20:46:41.748Z,92.84
2022-09-30T20:49:09.654Z,93.18
2022-09-30T20:51:37.810Z,94.95
2022-09-30T20:54:05.143Z,94.29
2022-09-30T20:56:55.669Z,93.59
2022-09-30T20:59:20.293Z,92.49
2022-09-30T21:01:47.780Z,94.53
2022-09-30T21:04:15.329Z,94.59
2022-09-30T21:06:42.782Z,95.21
2022-09-30T21:09:13.281Z,96.57
2022-09-30T21:11:42.174Z,95.82
2022-09-30T21:14:09.607Z,94.73
2022-09-30T21:16:37.247Z,94.69
2022-09-30T21:19:04.887Z,94.03
2022-09-30T21:21:32.553Z,93.69
2022-09-30T21:24:00.291Z,93.53
2022-09-30T21:26:28.003Z,93.51
2022-09-30T21:28:55.482Z,93.05
2022-09-30T21:31:27.720Z,92.70
2022-09-30T21:33:59.751Z,91.56
2022-09-30T21:36:28.986Z,92.26
2022-09-30T21:39:03.675Z,93.11
2022-09-30T21:41:33.293Z,95.51
2022-09-30T21:44:01.460Z,96.30
2022-09-30T21:46:29.625Z,97.37
2022-09-30T21:49:14.028Z,97.95
2022-09-30T21:51:41.849Z,97.14
2022-09-30T21:54:11.750Z,97.04
2022-09-30T21:56:43.098Z,97.15
2022-09-30T21:59:11.625Z,98.51
2022-09-30T22:01:40.200Z,98.22
2022-09-30T22:04:08.725Z,98.67
2022-09-30T22:06:36.244Z,98.36
2022-09-30T22:09:05.304Z,97.20
2022-09-30T22:11:33.316Z,97.73
2022-09-30T22:14:01.149Z,97.67
2022-09-30T22:16:32.229Z,98.51
2022-09-30T22:19:05.763Z,99.21
2022-09-30T22:21:36.234Z,99.49
2022-09-30T22:24:06.154Z,98.52
2022-09-30T22:26:33.961Z,100.00
2022-09-30T22:29:04.587Z,100.00
2022-09-30T22:31:33.270Z,100.00
2022-09-30T22:34:21.920Z,100.00
2022-09-30T22:37:08.105Z,100.00
2022-09-30T22:39:35.624Z,100.00
2022-09-30T22:42:03.768Z,100.00
2022-09-30T22:44:36.800Z,100.00
2022-09-30T22:47:05.285Z,100.00
2022-09-30T22:49:33.074Z,100.00
2022-09-30T22:52:02.160Z,98.84
2022-09-30T22:54:30.108Z,99.98
2022-09-30T22:56:59.460Z,99.45
2022-09-30T22:59:28.738Z,100.00
2022-09-30T23:01:57.386Z,100.00
2022-09-30T23:04:26.432Z,100.00
2022-09-30T23:06:55.534Z,100.00
2022-09-30T23:09:23.489Z,100.00
2022-09-30T23:11:55.323Z,100.00
2022-09-30T23:14:25.653Z,99.62
2022-09-30T23:16:53.663Z,99.38
2022-09-30T23:19:21.310Z,100.00
2022-09-30T23:21:48.787Z,99.95
2022-09-30T23:24:16.252Z,99.37
2022-09-30T23:26:43.698Z,100.00
2022-09-30T23:29:12.806Z,100.00
2022-09-30T23:31:40.565Z,100.00
2022-09-30T23:34:08.236Z,100.00
2022-09-30T23:36:37.226Z,100.00
2022-09-30T23:39:18.665Z,100.00
2022-09-30T23:41:47.919Z,100.00
2022-09-30T23:44:19.179Z,100.00
2022-09-30T23:47:06.580Z,100.00
2022-09-30T23:49:38.442Z,100.00
2022-09-30T23:52:10.442Z,100.00
2022-09-30T23:54:42.613Z,100.00
2022-09-30T23:57:11.135Z,100.00
2022-09-30T23:59:39.248Z,100.00
